sensor_id;sensor_type;location;lat;lon;timestamp;pressure;altitude;pressure_sealevel;temperature;humidity
49311;BME280;35177;45.900;5.946;2023-02-23T00:01:12;97397.66;;;5.23;100.00
49311;BME280;35177;45.900;5.946;2023-02-23T00:03:38;97397.97;;;5.21;100.00
49311;BME280;35177;45.900;5.946;2023-02-23T00:06:05;97394.91;;;5.23;100.00
49311;BME280;35177;45.900;5.946;2023-02-23T00:08:30;97392.91;;;5.34;100.00
49311;BME280;35177;45.900;5.946;2023-02-23T00:11:00;97396.78;;;5.33;100.00
49311;BME280;35177;45.900;5.946;2023-02-23T00:13:25;97399.72;;;5.41;100.00
49311;BME280;35177;45.900;5.946;2023-02-23T00:15:51;97403.00;;;5.49;100.00
49311;BME280;35177;45.900;5.946;2023-02-23T00:18:16;97394.56;;;5.35;100.00
49311;BME280;35177;45.900;5.946;2023-02-23T00:20:41;97397.19;;;5.50;100.00
49311;BME280;35177;45.900;5.946;2023-02-23T00:23:12;97398.84;;;5.51;100.00
49311;BME280;35177;45.900;5.946;2023-02-23T00:25:39;97402.25;;;5.38;100.00
49311;BME280;35177;45.900;5.946;2023-02-23T00:28:09;97393.19;;;5.37;100.00
49311;BME280;35177;45.900;5.946;2023-02-23T00:30:35;97396.44;;;5.39;100.00
49311;BME280;35177;45.900;5.946;2023-02-23T00:33:00;97398.38;;;5.39;100.00
49311;BME280;35177;45.900;5.946;2023-02-23T00:35:26;97400.72;;;5.21;100.00
49311;BME280;35177;45.900;5.946;2023-02-23T00:37:51;97406.47;;;5.25;100.00
49311;BME280;35177;45.900;5.946;2023-02-23T00:40:18;97403.72;;;5.20;100.00
49311;BME280;35177;45.900;5.946;2023-02-23T00:42:47;97407.91;;;5.12;100.00
49311;BME280;35177;45.900;5.946;2023-02-23T00:45:14;97408.72;;;5.12;100.00
49311;BME280;35177;45.900;5.946;2023-02-23T00:47:41;97407.41;;;5.05;100.00
49311;BME280;35177;45.900;5.946;2023-02-23T00:50:09;97411.25;;;5.09;100.00
49311;BME280;35177;45.900;5.946;2023-02-23T00:52:40;97404.66;;;5.05;100.00
49311;BME280;35177;45.900;5.946;2023-02-23T00:55:11;97400.25;;;5.09;100.00
49311;BME280;35177;45.900;5.946;2023-02-23T00:57:37;97401.31;;;5.13;100.00
49311;BME280;35177;45.900;5.946;2023-02-23T01:00:04;97402.09;;;5.19;100.00
49311;BME280;35177;45.900;5.946;2023-02-23T01:02:42;97398.16;;;5.30;100.00
49311;BME280;35177;45.900;5.946;2023-02-23T01:05:09;97390.44;;;5.32;100.00
49311;BME280;35177;45.900;5.946;2023-02-23T01:07:36;97387.97;;;5.30;100.00
49311;BME280;35177;45.900;5.946;2023-02-23T01:10:03;97391.56;;;5.26;100.00
49311;BME280;35177;45.900;5.946;2023-02-23T01:12:44;97388.56;;;5.27;100.00
49311;BME280;35177;45.900;5.946;2023-02-23T01:15:10;97390.47;;;5.27;100.00
49311;BME280;35177;45.900;5.946;2023-02-23T01:17:36;97399.84;;;5.26;100.00
49311;BME280;35177;45.900;5.946;2023-02-23T01:20:02;97397.63;;;5.28;100.00
49311;BME280;35177;45.900;5.946;2023-02-23T01:22:37;97395.13;;;5.31;100.00
49311;BME280;35177;45.900;5.946;2023-02-23T01:25:03;97385.28;;;5.25;100.00
49311;BME280;35177;45.900;5.946;2023-02-23T01:27:28;97395.47;;;5.25;100.00
49311;BME280;35177;45.900;5.946;2023-02-23T01:29:54;97401.22;;;5.28;100.00
49311;BME280;35177;45.900;5.946;2023-02-23T01:32:19;97393.22;;;5.27;100.00
49311;BME280;35177;45.900;5.946;2023-02-23T01:34:45;97392.91;;;5.34;100.00
49311;BME280;35177;45.900;5.946;2023-02-23T01:37:10;97390.69;;;5.36;100.00
49311;BME280;35177;45.900;5.946;2023-02-23T01:39:35;97392.91;;;5.34;100.00
49311;BME280;35177;45.900;5.946;2023-02-23T01:42:01;97393.19;;;5.32;100.00
49311;BME280;35177;45.900;5.946;2023-02-23T01:46:55;97385.16;;;5.41;100.00
49311;BME280;35177;45.900;5.946;2023-02-23T01:49:27;97379.88;;;5.50;100.00
49311;BME280;35177;45.900;5.946;2023-02-23T01:51:58;97384.81;;;5.47;100.00
49311;BME280;35177;45.900;5.946;2023-02-23T01:54:29;97370.53;;;5.45;100.00
49311;BME280;35177;45.900;5.946;2023-02-23T01:56:57;97377.16;;;5.44;100.00
49311;BME280;35177;45.900;5.946;2023-02-23T01:59:29;97368.91;;;5.39;100.00
49311;BME280;35177;45.900;5.946;2023-02-23T02:01:58;97369.81;;;5.35;100.00
49311;BME280;35177;45.900;5.946;2023-02-23T02:04:24;97366.50;;;5.33;100.00
49311;BME280;35177;45.900;5.946;2023-02-23T02:06:51;97362.34;;;5.35;100.00
49311;BME280;35177;45.900;5.946;2023-02-23T02:09:21;97373.31;;;5.40;100.00
49311;BME280;35177;45.900;5.946;2023-02-23T02:11:50;97364.22;;;5.45;100.00
49311;BME280;35177;45.900;5.946;2023-02-23T02:14:25;97363.91;;;5.46;100.00
49311;BME280;35177;45.900;5.946;2023-02-23T02:19:53;97358.03;;;5.58;100.00
49311;BME280;35177;45.900;5.946;2023-02-23T02:41:47;97342.97;;;5.51;100.00
49311;BME280;35177;45.900;5.946;2023-02-23T02:47:16;97340.34;;;5.35;100.00
49311;BME280;35177;45.900;5.946;2023-02-23T02:49:50;97341.50;;;5.29;100.00
49311;BME280;35177;45.900;5.946;2023-02-23T02:52:27;97341.44;;;5.34;100.00
49311;BME280;35177;45.900;5.946;2023-02-23T02:55:03;97342.81;;;5.37;100.00
49311;BME280;35177;45.900;5.946;2023-02-23T02:57:34;97333.34;;;5.48;100.00
49311;BME280;35177;45.900;5.946;2023-02-23T03:00:00;97330.84;;;5.52;100.00
49311;BME280;35177;45.900;5.946;2023-02-23T03:02:45;97328.69;;;5.49;100.00
49311;BME280;35177;45.900;5.946;2023-02-23T03:05:48;97334.75;;;5.45;100.00
49311;BME280;35177;45.900;5.946;2023-02-23T03:08:47;97329.59;;;5.39;100.00
49311;BME280;35177;45.900;5.946;2023-02-23T03:11:38;97338.19;;;5.27;100.00
49311;BME280;35177;45.900;5.946;2023-02-23T03:29:11;97340.38;;;5.30;100.00
49311;BME280;35177;45.900;5.946;2023-02-23T03:38:19;97346.41;;;5.32;100.00
49311;BME280;35177;45.900;5.946;2023-02-23T03:41:06;97336.28;;;5.27;100.00
49311;BME280;35177;45.900;5.946;2023-02-23T03:43:57;97337.66;;;5.30;100.00
49311;BME280;35177;45.900;5.946;2023-02-23T03:46:45;97328.47;;;5.40;100.00
49311;BME280;35177;45.900;5.946;2023-02-23T03:49:33;97339.09;;;5.52;100.00
49311;BME280;35177;45.900;5.946;2023-02-23T03:52:23;97337.19;;;5.52;100.00
49311;BME280;35177;45.900;5.946;2023-02-23T03:55:13;97338.28;;;5.51;100.00
49311;BME280;35177;45.900;5.946;2023-02-23T03:58:00;97331.06;;;5.55;100.00
49311;BME280;35177;45.900;5.946;2023-02-23T04:00:47;97328.06;;;5.52;100.00
49311;BME280;35177;45.900;5.946;2023-02-23T04:03:35;97338.56;;;5.50;100.00
49311;BME280;35177;45.900;5.946;2023-02-23T04:06:24;97338.81;;;5.53;100.00
49311;BME280;35177;45.900;5.946;2023-02-23T04:09:10;97330.56;;;5.53;100.00
49311;BME280;35177;45.900;5.946;2023-02-23T04:11:55;97325.56;;;5.55;100.00
49311;BME280;35177;45.900;5.946;2023-02-23T04:15:23;97331.97;;;5.51;100.00
49311;BME280;35177;45.900;5.946;2023-02-23T04:17:51;97331.38;;;5.54;100.00
49311;BME280;35177;45.900;5.946;2023-02-23T04:20:18;97328.91;;;5.52;100.00
49311;BME280;35177;45.900;5.946;2023-02-23T04:22:44;97325.69;;;5.45;100.00
49311;BME280;35177;45.900;5.946;2023-02-23T04:25:10;97338.03;;;5.47;100.00
49311;BME280;35177;45.900;5.946;2023-02-23T04:27:36;97324.28;;;5.47;100.00
49311;BME280;35177;45.900;5.946;2023-02-23T04:30:02;97333.03;;;5.55;100.00
49311;BME280;35177;45.900;5.946;2023-02-23T04:32:28;97325.63;;;5.50;100.00
49311;BME280;35177;45.900;5.946;2023-02-23T04:34:54;97338.63;;;5.44;100.00
49311;BME280;35177;45.900;5.946;2023-02-23T04:37:20;97328.97;;;5.47;100.00
49311;BME280;35177;45.900;5.946;2023-02-23T04:39:45;97330.88;;;5.46;100.00
49311;BME280;35177;45.900;5.946;2023-02-23T04:42:17;97329.28;;;5.40;100.00
49311;BME280;35177;45.900;5.946;2023-02-23T04:44:43;97327.84;;;5.48;100.00
49311;BME280;35177;45.900;5.946;2023-02-23T04:47:11;97333.06;;;5.50;100.00
49311;BME280;35177;45.900;5.946;2023-02-23T04:49:38;97327.84;;;5.48;100.00
49311;BME280;35177;45.900;5.946;2023-02-23T04:52:03;97332.53;;;5.47;100.00
49311;BME280;35177;45.900;5.946;2023-02-23T04:54:29;97332.22;;;5.49;100.00
49311;BME280;35177;45.900;5.946;2023-02-23T04:56:55;97330.84;;;5.52;100.00
49311;BME280;35177;45.900;5.946;2023-02-23T04:59:20;97327.28;;;5.51;100.00
49311;BME280;35177;45.900;5.946;2023-02-23T05:01:45;97331.91;;;5.56;100.00
49311;BME280;35177;45.900;5.946;2023-02-23T05:04:11;97334.06;;;5.59;100.00
49311;BME280;35177;45.900;5.946;2023-02-23T05:06:37;97328.50;;;5.64;100.00
49311;BME280;35177;45.900;5.946;2023-02-23T05:09:03;97332.34;;;5.68;100.00
49311;BME280;35177;45.900;5.946;2023-02-23T05:11:30;97322.63;;;5.76;100.00
49311;BME280;35177;45.900;5.946;2023-02-23T05:13:56;97321.81;;;5.75;100.00
49311;BME280;35177;45.900;5.946;2023-02-23T05:16:21;97316.59;;;5.74;100.00
49311;BME280;35177;45.900;5.946;2023-02-23T05:18:47;97321.09;;;5.65;100.00
49311;BME280;35177;45.900;5.946;2023-02-23T05:21:13;97316.13;;;5.67;100.00
49311;BME280;35177;45.900;5.946;2023-02-23T05:23:39;97318.47;;;5.78;100.00
49311;BME280;35177;45.900;5.946;2023-02-23T05:26:07;97314.31;;;5.81;100.00
49311;BME280;35177;45.900;5.946;2023-02-23T05:28:34;97316.50;;;5.84;100.00
49311;BME280;35177;45.900;5.946;2023-02-23T05:31:00;97314.59;;;5.79;100.00
49311;BME280;35177;45.900;5.946;2023-02-23T05:33:28;97310.88;;;5.70;100.00
49311;BME280;35177;45.900;5.946;2023-02-23T05:35:53;97308.38;;;5.69;100.00
49311;BME280;35177;45.900;5.946;2023-02-23T05:38:19;97309.78;;;5.66;100.00
49311;BME280;35177;45.900;5.946;2023-02-23T05:40:45;97313.06;;;5.68;100.00
49311;BME280;35177;45.900;5.946;2023-02-23T05:43:11;97308.09;;;5.70;100.00
49311;BME280;35177;45.900;5.946;2023-02-23T05:45:40;97310.81;;;5.75;100.00
49311;BME280;35177;45.900;5.946;2023-02-23T05:48:07;97305.56;;;5.74;100.00
49311;BME280;35177;45.900;5.946;2023-02-23T05:50:33;97301.22;;;5.68;100.00
49311;BME280;35177;45.900;5.946;2023-02-23T05:52:59;97303.16;;;5.67;100.00
49311;BME280;35177;45.900;5.946;2023-02-23T05:55:24;97305.13;;;5.67;100.00
49311;BME280;35177;45.900;5.946;2023-02-23T05:57:50;97302.38;;;5.67;100.00
49311;BME280;35177;45.900;5.946;2023-02-23T06:00:16;97300.97;;;5.69;100.00
49311;BME280;35177;45.900;5.946;2023-02-23T06:02:42;97298.47;;;5.68;100.00
49311;BME280;35177;45.900;5.946;2023-02-23T06:05:10;97299.13;;;5.59;100.00
49311;BME280;35177;45.900;5.946;2023-02-23T06:07:36;97307.16;;;5.56;100.00
49311;BME280;35177;45.900;5.946;2023-02-23T06:10:02;97303.84;;;5.54;100.00
49311;BME280;35177;45.900;5.946;2023-02-23T06:12:28;97306.34;;;5.50;100.00
49311;BME280;35177;45.900;5.946;2023-02-23T06:14:53;97314.38;;;5.46;100.00
49311;BME280;35177;45.900;5.946;2023-02-23T06:17:19;97300.03;;;5.50;100.00
49311;BME280;35177;45.900;5.946;2023-02-23T06:19:44;97300.00;;;5.55;100.00
49311;BME280;35177;45.900;5.946;2023-02-23T06:22:10;97306.50;;;5.64;100.00
49311;BME280;35177;45.900;5.946;2023-02-23T06:24:36;97307.75;;;5.77;100.00
49311;BME280;35177;45.900;5.946;2023-02-23T06:27:01;97310.88;;;5.65;100.00
49311;BME280;35177;45.900;5.946;2023-02-23T06:29:27;97307.41;;;5.54;100.00
49311;BME280;35177;45.900;5.946;2023-02-23T06:31:52;97316.25;;;5.51;100.00
49311;BME280;35177;45.900;5.946;2023-02-23T06:34:18;97317.38;;;5.50;100.00
49311;BME280;35177;45.900;5.946;2023-02-23T06:36:44;97317.81;;;5.62;100.00
49311;BME280;35177;45.900;5.946;2023-02-23T06:39:10;97325.56;;;5.60;100.00
49311;BME280;35177;45.900;5.946;2023-02-23T06:41:36;97324.88;;;5.39;100.00
49311;BME280;35177;45.900;5.946;2023-02-23T06:44:02;97321.88;;;5.36;100.00
49311;BME280;35177;45.900;5.946;2023-02-23T06:46:27;97325.38;;;5.46;100.00
49311;BME280;35177;45.900;5.946;2023-02-23T06:48:54;97325.13;;;5.43;100.00
49311;BME280;35177;45.900;5.946;2023-02-23T06:51:20;97326.78;;;5.44;100.00
49311;BME280;35177;45.900;5.946;2023-02-23T06:53:45;97326.47;;;5.51;100.00
49311;BME280;35177;45.900;5.946;2023-02-23T06:56:11;97335.78;;;5.55;100.00
49311;BME280;35177;45.900;5.946;2023-02-23T06:58:38;97337.69;;;5.54;100.00
49311;BME280;35177;45.900;5.946;2023-02-23T07:01:04;97332.66;;;5.61;100.00
49311;BME280;35177;45.900;5.946;2023-02-23T07:03:29;97330.31;;;5.79;100.00
49311;BME280;35177;45.900;5.946;2023-02-23T07:05:55;97333.56;;;5.86;100.00
49311;BME280;35177;45.900;5.946;2023-02-23T07:08:20;97333.75;;;5.90;100.00
49311;BME280;35177;45.900;5.946;2023-02-23T07:10:46;97324.75;;;5.84;100.00
49311;BME280;35177;45.900;5.946;2023-02-23T07:13:11;97331.94;;;5.80;100.00
49311;BME280;35177;45.900;5.946;2023-02-23T07:15:38;97329.91;;;5.67;100.00
49311;BME280;35177;45.900;5.946;2023-02-23T07:18:08;97331.50;;;5.68;100.00
49311;BME280;35177;45.900;5.946;2023-02-23T07:20:34;97326.91;;;5.63;100.00
49311;BME280;35177;45.900;5.946;2023-02-23T07:22:59;97325.81;;;5.59;100.00
49311;BME280;35177;45.900;5.946;2023-02-23T07:25:29;97321.97;;;5.60;100.00
49311;BME280;35177;45.900;5.946;2023-02-23T07:27:55;97328.31;;;5.60;100.00
49311;BME280;35177;45.900;5.946;2023-02-23T07:30:23;97323.16;;;5.49;100.00
49311;BME280;35177;45.900;5.946;2023-02-23T07:32:49;97328.63;;;5.54;100.00
49311;BME280;35177;45.900;5.946;2023-02-23T07:35:15;97332.72;;;5.56;100.00
49311;BME280;35177;45.900;5.946;2023-02-23T07:37:41;97333.03;;;5.55;100.00
49311;BME280;35177;45.900;5.946;2023-02-23T07:40:07;97328.69;;;5.49;100.00
49311;BME280;35177;45.900;5.946;2023-02-23T07:42:33;97330.56;;;5.53;100.00
49311;BME280;35177;45.900;5.946;2023-02-23T07:44:58;97327.94;;;5.67;100.00
49311;BME280;35177;45.900;5.946;2023-02-23T07:47:24;97330.25;;;5.84;100.00
49311;BME280;35177;45.900;5.946;2023-02-23T07:49:56;97329.09;;;5.90;100.00
49311;BME280;35177;45.900;5.946;2023-02-23T07:52:22;97327.03;;;6.06;100.00
49311;BME280;35177;45.900;5.946;2023-02-23T07:54:47;97324.44;;;6.15;100.00
49311;BME280;35177;45.900;5.946;2023-02-23T07:57:20;97322.50;;;6.16;100.00
49311;BME280;35177;45.900;5.946;2023-02-23T07:59:48;97316.09;;;6.20;100.00
49311;BME280;35177;45.900;5.946;2023-02-23T08:02:14;97322.38;;;6.26;100.00
49311;BME280;35177;45.900;5.946;2023-02-23T08:04:41;97319.72;;;6.40;100.00
49311;BME280;35177;45.900;5.946;2023-02-23T08:07:08;97313.88;;;6.47;100.00
49311;BME280;35177;45.900;5.946;2023-02-23T08:09:33;97321.91;;;6.43;100.00
49311;BME280;35177;45.900;5.946;2023-02-23T08:12:00;97325.00;;;6.36;100.00
49311;BME280;35177;45.900;5.946;2023-02-23T08:14:26;97325.47;;;6.43;100.00
49311;BME280;35177;45.900;5.946;2023-02-23T08:16:52;97319.88;;;6.49;100.00
49311;BME280;35177;45.900;5.946;2023-02-23T08:19:17;97319.63;;;6.50;100.00
49311;BME280;35177;45.900;5.946;2023-02-23T08:21:47;97324.22;;;6.55;100.00
49311;BME280;35177;45.900;5.946;2023-02-23T08:24:14;97316.78;;;6.55;100.00
49311;BME280;35177;45.900;5.946;2023-02-23T08:26:40;97322.00;;;6.57;100.00
49311;BME280;35177;45.900;5.946;2023-02-23T08:29:05;97317.22;;;6.43;100.00
49311;BME280;35177;45.900;5.946;2023-02-23T08:31:31;97320.03;;;6.57;100.00
49311;BME280;35177;45.900;5.946;2023-02-23T08:33:57;97313.94;;;6.61;100.00
49311;BME280;35177;45.900;5.946;2023-02-23T08:36:23;97320.50;;;6.46;100.00
49311;BME280;35177;45.900;5.946;2023-02-23T08:38:48;97323.63;;;6.58;100.00
49311;BME280;35177;45.900;5.946;2023-02-23T08:41:14;97324.03;;;6.70;100.00
49311;BME280;35177;45.900;5.946;2023-02-23T08:43:40;97323.03;;;6.99;100.00
49311;BME280;35177;45.900;5.946;2023-02-23T08:46:06;97307.09;;;7.15;100.00
49311;BME280;35177;45.900;5.946;2023-02-23T08:48:32;97309.81;;;7.34;100.00
49311;BME280;35177;45.900;5.946;2023-02-23T08:50:58;97308.25;;;7.61;100.00
49311;BME280;35177;45.900;5.946;2023-02-23T08:53:25;97301.56;;;8.23;100.00
49311;BME280;35177;45.900;5.946;2023-02-23T08:56:04;97293.00;;;8.89;100.00
49311;BME280;35177;45.900;5.946;2023-02-23T08:58:30;97276.44;;;8.61;100.00
49311;BME280;35177;45.900;5.946;2023-02-23T09:00:57;97274.25;;;8.49;100.00
49311;BME280;35177;45.900;5.946;2023-02-23T09:03:23;97276.59;;;8.93;100.00
49311;BME280;35177;45.900;5.946;2023-02-23T09:05:51;97261.34;;;9.81;100.00
49311;BME280;35177;45.900;5.946;2023-02-23T09:08:17;97253.91;;;9.99;100.00
49311;BME280;35177;45.900;5.946;2023-02-23T09:10:43;97250.50;;;10.42;100.00
49311;BME280;35177;45.900;5.946;2023-02-23T09:13:10;97243.84;;;10.87;100.00
49311;BME280;35177;45.900;5.946;2023-02-23T09:15:37;97246.47;;;10.84;100.00
49311;BME280;35177;45.900;5.946;2023-02-23T09:18:05;97240.91;;;11.28;100.00
49311;BME280;35177;45.900;5.946;2023-02-23T09:20:31;97242.56;;;11.11;100.00
49311;BME280;35177;45.900;5.946;2023-02-23T09:22:56;97230.28;;;11.12;100.00
49311;BME280;35177;45.900;5.946;2023-02-23T09:25:22;97236.44;;;11.53;100.00
49311;BME280;35177;45.900;5.946;2023-02-23T09:27:52;97240.59;;;11.12;100.00
49311;BME280;35177;45.900;5.946;2023-02-23T09:30:21;97250.41;;;10.91;100.00
49311;BME280;35177;45.900;5.946;2023-02-23T09:32:51;97247.44;;;11.14;100.00
49311;BME280;35177;45.900;5.946;2023-02-23T09:35:19;97240.25;;;11.87;100.00
49311;BME280;35177;45.900;5.946;2023-02-23T09:37:50;97235.44;;;11.66;100.00
49311;BME280;35177;45.900;5.946;2023-02-23T09:40:21;97233.03;;;11.95;100.00
49311;BME280;35177;45.900;5.946;2023-02-23T09:43:00;97233.31;;;12.92;100.00
49311;BME280;35177;45.900;5.946;2023-02-23T09:46:26;97229.56;;;12.66;100.00
49311;BME280;35177;45.900;5.946;2023-02-23T09:48:24;97231.44;;;10.85;100.00
49311;BME280;35177;45.900;5.946;2023-02-23T09:50:52;97234.44;;;12.18;100.00
49311;BME280;35177;45.900;5.946;2023-02-23T09:53:35;97229.81;;;12.74;100.00
49311;BME280;35177;45.900;5.946;2023-02-23T09:56:30;97223.66;;;14.02;100.00
49311;BME280;35177;45.900;5.946;2023-02-23T09:59:01;97229.72;;;14.04;100.00
49311;BME280;35177;45.900;5.946;2023-02-23T10:15:14;97217.91;;;14.85;100.00
49311;BME280;35177;45.900;5.946;2023-02-23T10:20:38;97214.31;;;15.25;100.00
49311;BME280;35177;45.900;5.946;2023-02-23T10:23:15;97210.66;;;16.14;100.00
49311;BME280;35177;45.900;5.946;2023-02-23T10:25:47;97213.44;;;16.30;100.00
49311;BME280;35177;45.900;5.946;2023-02-23T10:28:20;97208.28;;;15.84;100.00
49311;BME280;35177;45.900;5.946;2023-02-23T10:30:49;97204.75;;;15.71;100.00
49311;BME280;35177;45.900;5.946;2023-02-23T10:33:23;97206.88;;;15.17;100.00
49311;BME280;35177;45.900;5.946;2023-02-23T10:35:55;97209.25;;;15.31;100.00
49311;BME280;35177;45.900;5.946;2023-02-23T10:38:21;97207.97;;;14.10;100.00
49311;BME280;35177;45.900;5.946;2023-02-23T10:40:53;97205.13;;;13.73;100.00
49311;BME280;35177;45.900;5.946;2023-02-23T10:43:20;97200.84;;;14.74;100.00
49311;BME280;35177;45.900;5.946;2023-02-23T10:45:50;97201.88;;;14.70;100.00
49311;BME280;35177;45.900;5.946;2023-02-23T10:48:26;97198.78;;;15.00;100.00
49311;BME280;35177;45.900;5.946;2023-02-23T10:50:55;97196.53;;;15.62;100.00
49311;BME280;35177;45.900;5.946;2023-02-23T10:53:36;97189.72;;;15.47;100.00
49311;BME280;35177;45.900;5.946;2023-02-23T10:56:13;97197.84;;;15.08;100.00
49311;BME280;35177;45.900;5.946;2023-02-23T11:01:09;97199.50;;;14.97;100.00
49311;BME280;35177;45.900;5.946;2023-02-23T11:03:47;97199.81;;;14.42;100.00
49311;BME280;35177;45.900;5.946;2023-02-23T11:06:31;97198.94;;;15.19;100.00
49311;BME280;35177;45.900;5.946;2023-02-23T11:08:56;97187.50;;;15.24;100.00
49311;BME280;35177;45.900;5.946;2023-02-23T11:11:25;97186.44;;;15.01;100.00
49311;BME280;35177;45.900;5.946;2023-02-23T11:13:54;97188.06;;;15.02;100.00
49311;BME280;35177;45.900;5.946;2023-02-23T11:16:39;97187.81;;;15.07;100.00
49311;BME280;35177;45.900;5.946;2023-02-23T11:19:06;97178.34;;;15.12;100.00
49311;BME280;35177;45.900;5.946;2023-02-23T11:21:49;97186.03;;;14.86;100.00
49311;BME280;35177;45.900;5.946;2023-02-23T11:24:31;97180.59;;;15.06;100.00
49311;BME280;35177;45.900;5.946;2023-02-23T11:27:00;97175.78;;;15.35;100.00
49311;BME280;35177;45.900;5.946;2023-02-23T11:29:34;97179.38;;;14.91;100.00
49311;BME280;35177;45.900;5.946;2023-02-23T11:32:21;97179.88;;;15.09;100.00
49311;BME280;35177;45.900;5.946;2023-02-23T11:35:12;97179.38;;;14.91;100.00
49311;BME280;35177;45.900;5.946;2023-02-23T11:37:38;97181.31;;;14.50;100.00
49311;BME280;35177;45.900;5.946;2023-02-23T11:40:26;97180.63;;;14.28;100.00
49311;BME280;35177;45.900;5.946;2023-02-23T11:45:37;97169.34;;;14.24;100.00
49311;BME280;35177;45.900;5.946;2023-02-23T11:48:03;97164.13;;;13.86;100.00
49311;BME280;35177;45.900;5.946;2023-02-23T11:50:34;97159.59;;;13.81;100.00
49311;BME280;35177;45.900;5.946;2023-02-23T11:53:05;97149.84;;;13.87;100.00
49311;BME280;35177;45.900;5.946;2023-02-23T11:55:37;97149.84;;;13.29;100.00
49311;BME280;35177;45.900;5.946;2023-02-23T11:58:28;97149.56;;;13.55;100.00
49311;BME280;35177;45.900;5.946;2023-02-23T12:00:56;97141.09;;;13.52;100.00
49311;BME280;35177;45.900;5.946;2023-02-23T12:03:24;97144.13;;;13.84;100.00
49311;BME280;35177;45.900;5.946;2023-02-23T12:05:53;97143.44;;;14.11;100.00
49311;BME280;35177;45.900;5.946;2023-02-23T12:08:38;97126.22;;;14.22;100.00
49311;BME280;35177;45.900;5.946;2023-02-23T12:11:07;97122.63;;;14.09;100.00
49311;BME280;35177;45.900;5.946;2023-02-23T12:14:25;97129.28;;;13.67;100.00
49311;BME280;35177;45.900;5.946;2023-02-23T12:16:49;97126.72;;;13.62;100.00
49311;BME280;35177;45.900;5.946;2023-02-23T12:19:26;97119.13;;;13.38;100.00
49311;BME280;35177;45.900;5.946;2023-02-23T12:24:48;97111.91;;;14.23;100.00
49311;BME280;35177;45.900;5.946;2023-02-23T12:27:27;97102.44;;;14.53;100.00
49311;BME280;35177;45.900;5.946;2023-02-23T12:35:42;97090.88;;;14.95;100.00
49311;BME280;35177;45.900;5.946;2023-02-23T12:40:43;97078.38;;;14.76;100.00
49311;BME280;35177;45.900;5.946;2023-02-23T12:43:43;97067.88;;;15.02;100.00
49311;BME280;35177;45.900;5.946;2023-02-23T12:46:34;97065.75;;;15.43;100.00
49311;BME280;35177;45.900;5.946;2023-02-23T12:51:36;97062.06;;;15.23;100.00
49311;BME280;35177;45.900;5.946;2023-02-23T12:54:03;97054.75;;;15.18;100.00
49311;BME280;35177;45.900;5.946;2023-02-23T12:59:31;97058.03;;;15.36;100.00
49311;BME280;35177;45.900;5.946;2023-02-23T13:02:04;97050.06;;;15.22;100.00
49311;BME280;35177;45.900;5.946;2023-02-23T13:20:52;97044.53;;;14.94;100.00
49311;BME280;35177;45.900;5.946;2023-02-23T13:23:35;97045.22;;;14.75;100.00
49311;BME280;35177;45.900;5.946;2023-02-23T13:32:01;97047.03;;;14.55;100.00
49311;BME280;35177;45.900;5.946;2023-02-23T13:34:38;97039.09;;;14.57;100.00
49311;BME280;35177;45.900;5.946;2023-02-23T13:37:06;97034.00;;;14.59;100.00
49311;BME280;35177;45.900;5.946;2023-02-23T13:48:01;97031.72;;;14.65;100.00
49311;BME280;35177;45.900;5.946;2023-02-23T13:50:36;97030.44;;;14.74;100.00
49311;BME280;35177;45.900;5.946;2023-02-23T13:53:27;97031.28;;;14.91;100.00
49311;BME280;35177;45.900;5.946;2023-02-23T13:55:58;97028.50;;;14.91;100.00
49311;BME280;35177;45.900;5.946;2023-02-23T13:58:29;97028.41;;;15.03;100.00
49311;BME280;35177;45.900;5.946;2023-02-23T14:01:16;97036.50;;;14.92;100.00
49311;BME280;35177;45.900;5.946;2023-02-23T14:04:03;97030.56;;;15.10;100.00
49311;BME280;35177;45.900;5.946;2023-02-23T14:06:32;97028.75;;;15.02;100.00
49311;BME280;35177;45.900;5.946;2023-02-23T14:11:37;97030.69;;;14.41;100.00
49311;BME280;35177;45.900;5.946;2023-02-23T14:14:04;97023.84;;;14.67;100.00
49311;BME280;35177;45.900;5.946;2023-02-23T14:16:30;97030.63;;;14.82;100.00
49311;BME280;35177;45.900;5.946;2023-02-23T14:19:09;97024.88;;;14.90;100.00
49311;BME280;35177;45.900;5.946;2023-02-23T14:22:00;97015.03;;;14.81;100.00
49311;BME280;35177;45.900;5.946;2023-02-23T14:24:26;97013.34;;;14.92;100.00
49311;BME280;35177;45.900;5.946;2023-02-23T14:27:22;97012.91;;;14.90;100.00
49311;BME280;35177;45.900;5.946;2023-02-23T14:30:12;97011.16;;;14.69;100.00
49311;BME280;35177;45.900;5.946;2023-02-23T14:32:42;97010.44;;;14.72;100.00
49311;BME280;35177;45.900;5.946;2023-02-23T14:38:00;97010.28;;;14.53;100.00
49311;BME280;35177;45.900;5.946;2023-02-23T14:40:33;97002.41;;;14.42;100.00
49311;BME280;35177;45.900;5.946;2023-02-23T14:43:03;97004.66;;;14.24;100.00
49311;BME280;35177;45.900;5.946;2023-02-23T14:45:53;97005.88;;;14.23;100.00
49311;BME280;35177;45.900;5.946;2023-02-23T14:48:19;97006.66;;;14.24;100.00
49311;BME280;35177;45.900;5.946;2023-02-23T14:50:48;97003.06;;;14.23;100.00
49311;BME280;35177;45.900;5.946;2023-02-23T14:53:23;97004.22;;;14.22;100.00
49311;BME280;35177;45.900;5.946;2023-02-23T14:55:49;96997.88;;;14.09;100.00
49311;BME280;35177;45.900;5.946;2023-02-23T14:58:35;97004.75;;;14.00;100.00
49311;BME280;35177;45.900;5.946;2023-02-23T15:01:00;97001.56;;;13.85;100.00
49311;BME280;35177;45.900;5.946;2023-02-23T15:03:26;97008.63;;;13.82;100.00
49311;BME280;35177;45.900;5.946;2023-02-23T15:05:59;97004.22;;;13.81;100.00
49311;BME280;35177;45.900;5.946;2023-02-23T15:08:27;97006.19;;;13.81;100.00
49311;BME280;35177;45.900;5.946;2023-02-23T15:11:09;97003.28;;;13.77;100.00
49311;BME280;35177;45.900;5.946;2023-02-23T15:13:55;96999.69;;;13.77;100.00
49311;BME280;35177;45.900;5.946;2023-02-23T15:16:30;97005.38;;;13.80;100.00
49311;BME280;35177;45.900;5.946;2023-02-23T15:18:58;97001.69;;;13.64;100.00
49311;BME280;35177;45.900;5.946;2023-02-23T15:21:24;96999.13;;;13.59;100.00